Time;durP1;ratioP1;P1;durP2;ratioP2;P2;SDS_P1;SDS_P2;PMS_P1;PMS_P2;Temp;Humidity;BMP_temperature;BMP_pressure;BME280_temperature;BME280_humidity;BME280_pressure;Samples;Min_cycle;Max_cycle;Signal;HPM_P1;HPM_P2
2021/10/15 00:01:46;;;;;;;4.78;3.97;;;6.10;72.70;;;;;;4958694;28;20499;-67
2021/10/15 00:04:11;;;;;;;5.43;4.00;;;6.00;72.70;;;;;;4957415;28;20031;-67
2021/10/15 00:06:37;;;;;;;5.68;4.28;;;6.00;72.90;;;;;;4958781;28;20023;-67
2021/10/15 00:09:03;;;;;;;5.72;4.25;;;5.90;73.00;;;;;;4960322;28;20150;-67
2021/10/15 00:11:28;;;;;;;5.00;4.05;;;5.90;73.00;;;;;;4957584;28;20511;-67
2021/10/15 00:13:54;;;;;;;5.72;4.03;;;5.90;72.90;;;;;;4960182;28;20035;-67
2021/10/15 00:16:20;;;;;;;5.88;4.03;;;5.80;73.00;;;;;;4958099;28;20038;-68
2021/10/15 00:18:45;;;;;;;7.60;4.13;;;5.80;73.10;;;;;;4958187;28;20040;-68
2021/10/15 00:21:11;;;;;;;5.28;4.35;;;5.80;73.30;;;;;;4960861;28;20035;-68
2021/10/15 00:23:36;;;;;;;5.97;4.22;;;5.70;73.30;;;;;;4956540;28;20035;-67
2021/10/15 00:26:02;;;;;;;6.28;4.20;;;5.70;73.20;;;;;;4960061;28;20081;-67
2021/10/15 00:28:28;;;;;;;5.53;4.28;;;5.70;73.10;;;;;;4957034;28;20046;-67
2021/10/15 00:30:57;;;;;;;7.10;4.45;;;5.60;73.10;;;;;;4957420;28;20047;-67
2021/10/15 00:33:22;;;;;;;7.22;4.50;;;5.60;73.30;;;;;;4959954;28;20046;-67
2021/10/15 00:35:48;;;;;;;8.50;4.53;;;5.50;73.30;;;;;;4962461;28;20406;-67
2021/10/15 00:38:14;;;;;;;8.25;4.47;;;5.50;73.40;;;;;;4962346;28;20122;-67
2021/10/15 00:40:39;;;;;;;6.47;4.55;;;5.50;73.40;;;;;;4960810;28;20051;-68
2021/10/15 00:43:05;;;;;;;7.35;4.38;;;5.40;73.40;;;;;;4962208;28;20035;-68
2021/10/15 00:45:30;;;;;;;6.35;4.30;;;5.40;73.60;;;;;;4963114;28;20038;-67
2021/10/15 00:47:56;;;;;;;8.07;5.00;;;5.30;73.60;;;;;;4960550;28;20121;-67
2021/10/15 00:50:22;;;;;;;7.50;4.32;;;5.30;73.60;;;;;;4961816;28;20070;-67
2021/10/15 00:52:47;;;;;;;7.68;4.53;;;5.30;73.70;;;;;;4962385;28;20034;-67
2021/10/15 00:55:13;;;;;;;6.85;4.57;;;5.20;73.60;;;;;;4960497;28;20058;-67
2021/10/15 00:57:39;;;;;;;5.90;4.10;;;5.20;73.70;;;;;;4959559;28;20047;-67
2021/10/15 01:00:05;;;;;;;6.10;4.10;;;5.20;73.90;;;;;;4959818;28;20031;-65
2021/10/15 01:02:31;;;;;;;5.38;3.78;;;5.20;74.10;;;;;;4964837;28;20050;-67
2021/10/15 01:04:57;;;;;;;6.13;4.43;;;5.20;74.30;;;;;;4955449;28;20034;-67
2021/10/15 01:07:23;;;;;;;7.10;4.25;;;5.20;74.30;;;;;;4959159;28;20501;-66
2021/10/15 01:09:50;;;;;;;7.13;4.80;;;5.20;74.20;;;;;;4956569;28;20034;-67
2021/10/15 01:12:16;;;;;;;6.03;4.45;;;5.10;74.10;;;;;;4957407;28;20498;-67
2021/10/15 01:14:42;;;;;;;7.40;4.32;;;5.20;74.30;;;;;;4956091;28;20161;-67
2021/10/15 01:17:07;;;;;;;6.50;4.15;;;5.20;74.30;;;;;;4958571;28;20058;-68
2021/10/15 01:19:33;;;;;;;5.30;4.10;;;5.10;74.10;;;;;;4957656;28;20047;-67
2021/10/15 01:22:01;;;;;;;6.28;3.83;;;5.10;74.10;;;;;;4957035;28;20098;-67
2021/10/15 01:24:27;;;;;;;6.28;4.20;;;5.00;74.00;;;;;;4958214;28;20027;-67
2021/10/15 01:26:53;;;;;;;5.38;3.92;;;5.10;74.30;;;;;;4960459;28;21832;-68
2021/10/15 01:29:19;;;;;;;7.63;4.07;;;5.10;74.50;;;;;;4960498;28;20417;-67
2021/10/15 01:31:44;;;;;;;4.65;4.00;;;5.10;74.40;;;;;;4960055;28;20033;-67
2021/10/15 01:34:10;;;;;;;4.93;3.72;;;5.10;74.30;;;;;;4957812;28;20380;-66
2021/10/15 01:36:36;;;;;;;6.88;4.05;;;5.10;74.10;;;;;;4957259;28;20042;-68
2021/10/15 01:39:02;;;;;;;6.75;3.97;;;5.10;74.10;;;;;;4961008;28;20043;-67
2021/10/15 01:41:28;;;;;;;5.40;3.78;;;5.00;74.00;;;;;;4956321;28;22426;-67
2021/10/15 01:43:54;;;;;;;5.05;3.40;;;5.00;74.10;;;;;;4956047;28;20055;-67
2021/10/15 01:46:19;;;;;;;4.97;3.65;;;5.00;74.20;;;;;;4955329;28;20529;-67
2021/10/15 01:48:45;;;;;;;5.55;3.83;;;5.00;74.30;;;;;;4957941;28;20034;-67
2021/10/15 01:51:10;;;;;;;6.47;3.80;;;5.00;74.30;;;;;;4959833;28;20023;-67
2021/10/15 01:53:36;;;;;;;7.15;4.25;;;5.00;74.30;;;;;;4961282;28;20027;-67
2021/10/15 01:56:02;;;;;;;5.78;3.30;;;5.00;74.10;;;;;;4958037;28;20058;-67
2021/10/15 01:58:28;;;;;;;4.90;3.97;;;4.90;74.30;;;;;;4957228;28;20035;-67
2021/10/15 02:00:54;;;;;;;6.03;4.13;;;4.90;74.60;;;;;;4957561;28;20395;-67
2021/10/15 02:03:19;;;;;;;4.47;3.40;;;4.90;75.50;;;;;;4959903;28;20573;-67
2021/10/15 02:05:46;;;;;;;5.03;4.07;;;4.80;74.60;;;;;;4956627;28;20392;-67
2021/10/15 02:08:11;;;;;;;5.55;3.70;;;4.90;74.60;;;;;;4957779;28;20028;-67
2021/10/15 02:10:37;;;;;;;6.38;4.07;;;4.80;74.60;;;;;;4959528;28;20454;-68
2021/10/15 02:13:03;;;;;;;4.07;3.45;;;4.90;74.60;;;;;;4960639;28;20799;-67
2021/10/15 02:15:28;;;;;;;5.85;3.80;;;4.90;74.50;;;;;;4960445;28;20104;-67
2021/10/15 02:17:54;;;;;;;6.40;3.85;;;4.90;74.40;;;;;;4961164;28;20506;-67
2021/10/15 02:20:20;;;;;;;8.68;4.13;;;4.90;74.10;;;;;;4960286;28;20038;-67
2021/10/15 02:22:49;;;;;;;5.55;3.78;;;4.90;74.00;;;;;;4973524;28;20447;-68
2021/10/15 02:25:16;;;;;;;6.22;4.28;;;4.90;73.90;;;;;;4960507;28;20024;-67
2021/10/15 02:27:41;;;;;;;4.55;3.70;;;4.80;73.90;;;;;;4959838;28;20031;-67
2021/10/15 02:30:10;;;;;;;4.80;3.75;;;4.80;73.80;;;;;;4960500;28;20054;-67
2021/10/15 02:32:36;;;;;;;5.25;4.07;;;4.80;73.80;;;;;;4965870;28;20086;-67
2021/10/15 02:35:04;;;;;;;5.25;3.97;;;4.80;73.80;;;;;;4958760;28;20035;-68
2021/10/15 02:37:29;;;;;;;6.47;4.13;;;4.70;73.80;;;;;;4960382;28;20058;-68
2021/10/15 02:39:55;;;;;;;4.90;3.67;;;4.60;74.00;;;;;;4961275;28;20070;-67
2021/10/15 02:42:21;;;;;;;5.63;3.83;;;4.70;74.10;;;;;;4960790;28;20027;-67
2021/10/15 02:44:46;;;;;;;5.68;3.70;;;4.60;74.00;;;;;;4958817;28;20035;-67
2021/10/15 02:47:12;;;;;;;7.25;3.78;;;4.60;74.10;;;;;;4960004;28;20078;-67
2021/10/15 02:49:38;;;;;;;4.80;3.75;;;4.50;74.00;;;;;;4959888;28;20510;-67
2021/10/15 02:52:03;;;;;;;4.32;3.42;;;4.50;74.00;;;;;;4960281;28;20552;-68
2021/10/15 02:54:29;;;;;;;5.85;3.85;;;4.50;74.20;;;;;;4958947;28;20052;-66
2021/10/15 02:56:55;;;;;;;5.32;3.80;;;4.50;74.40;;;;;;4958923;28;20055;-67
2021/10/15 02:59:20;;;;;;;6.65;4.22;;;4.50;74.40;;;;;;4960605;28;20054;-68
2021/10/15 03:01:46;;;;;;;6.68;4.13;;;4.50;74.40;;;;;;4974225;28;20035;-67
2021/10/15 03:04:12;;;;;;;6.90;3.78;;;4.50;74.40;;;;;;4959967;28;20034;-67
2021/10/15 03:06:37;;;;;;;5.65;4.28;;;4.40;74.30;;;;;;4964247;28;20035;-67
2021/10/15 03:09:03;;;;;;;6.20;4.32;;;4.40;74.10;;;;;;4962106;28;20039;-67
2021/10/15 03:11:29;;;;;;;6.90;4.13;;;4.40;74.00;;;;;;4954030;28;20165;-67
2021/10/15 03:13:55;;;;;;;9.70;4.85;;;4.40;74.00;;;;;;4957526;28;20183;-67
2021/10/15 03:16:20;;;;;;;9.25;5.43;;;4.40;74.10;;;;;;4956944;28;20105;-67
2021/10/15 03:18:46;;;;;;;11.43;6.22;;;4.30;74.30;;;;;;4956416;28;20110;-68
2021/10/15 03:21:12;;;;;;;14.05;7.15;;;4.20;74.30;;;;;;4953907;28;20118;-67
2021/10/15 03:23:37;;;;;;;13.73;6.93;;;4.20;74.50;;;;;;4954249;28;20447;-67
2021/10/15 03:26:03;;;;;;;13.77;6.80;;;4.20;74.60;;;;;;4958191;28;20039;-67
2021/10/15 03:28:29;;;;;;;13.63;6.88;;;4.20;74.60;;;;;;4956115;28;20062;-68
2021/10/15 03:30:55;;;;;;;12.73;6.70;;;4.20;75.60;;;;;;4956562;28;20035;-68
2021/10/15 03:33:20;;;;;;;11.50;6.25;;;4.20;74.70;;;;;;4956908;28;20042;-66
2021/10/15 03:35:46;;;;;;;10.68;6.22;;;4.20;74.80;;;;;;4954760;28;20545;-66
2021/10/15 03:38:11;;;;;;;8.43;5.18;;;4.20;74.80;;;;;;4954616;28;20093;-67
2021/10/15 03:40:37;;;;;;;9.07;5.20;;;4.20;74.90;;;;;;4956914;28;20044;-68
2021/10/15 03:43:03;;;;;;;7.57;4.97;;;4.20;75.00;;;;;;4957235;28;20042;-68
2021/10/15 03:45:29;;;;;;;8.23;5.55;;;4.10;75.00;;;;;;4955457;28;20042;-66
2021/10/15 03:47:55;;;;;;;8.65;5.10;;;4.10;75.10;;;;;;4955671;28;20034;-67
2021/10/15 03:50:20;;;;;;;8.45;5.13;;;4.10;75.30;;;;;;4953129;28;20089;-67
2021/10/15 03:52:46;;;;;;;7.68;5.03;;;4.10;75.50;;;;;;4957066;28;20582;-68
2021/10/15 03:55:13;;;;;;;8.52;5.10;;;4.10;75.60;;;;;;4957654;28;20035;-67
2021/10/15 03:57:40;;;;;;;9.10;5.35;;;4.10;75.50;;;;;;4953912;28;20129;-68
2021/10/15 04:00:10;;;;;;;6.82;4.50;;;4.10;75.50;;;;;;4955460;28;20804;-67
2021/10/15 04:02:43;;;;;;;7.72;4.80;;;4.10;75.60;;;;;;4957380;28;20133;-67
2021/10/15 04:05:10;;;;;;;6.15;4.72;;;4.10;75.80;;;;;;4958162;28;20086;-67
2021/10/15 04:07:36;;;;;;;6.82;4.85;;;4.00;75.50;;;;;;4957830;28;20081;-67
2021/10/15 04:10:03;;;;;;;6.65;4.50;;;4.00;75.40;;;;;;4961631;28;20323;-67
2021/10/15 04:12:29;;;;;;;6.93;4.80;;;4.00;75.50;;;;;;4960396;28;20054;-67
2021/10/15 04:14:54;;;;;;;6.75;4.45;;;4.00;75.50;;;;;;4962390;28;20042;-68
2021/10/15 04:17:20;;;;;;;8.48;5.30;;;4.00;75.50;;;;;;4959416;28;20047;-67
2021/10/15 04:19:45;;;;;;;6.47;4.68;;;4.00;75.40;;;;;;4961678;28;20031;-68
2021/10/15 04:22:11;;;;;;;8.23;5.68;;;4.00;75.20;;;;;;4961018;28;20086;-67
2021/10/15 04:24:38;;;;;;;7.65;5.88;;;4.00;75.20;;;;;;4960130;28;20027;-68
2021/10/15 04:27:04;;;;;;;7.75;5.55;;;4.00;75.20;;;;;;4960526;28;20055;-67
2021/10/15 04:29:30;;;;;;;7.38;5.72;;;4.00;75.30;;;;;;4959819;28;20382;-66
2021/10/15 04:31:55;;;;;;;9.05;5.35;;;4.00;75.30;;;;;;4964415;28;20026;-68
2021/10/15 04:34:21;;;;;;;8.73;5.13;;;4.00;75.30;;;;;;4956636;28;20027;-67
2021/10/15 04:36:47;;;;;;;6.63;5.22;;;4.00;75.30;;;;;;4959690;28;20039;-68
2021/10/15 04:39:12;;;;;;;9.73;6.18;;;3.90;75.30;;;;;;4961938;28;20414;-68
2021/10/15 04:41:38;;;;;;;11.48;6.50;;;3.90;75.70;;;;;;4961187;28;20027;-67
2021/10/15 04:44:04;;;;;;;10.85;6.47;;;4.00;76.20;;;;;;4963007;28;20035;-68
2021/10/15 04:46:30;;;;;;;21.10;8.18;;;4.00;76.50;;;;;;4960822;28;20497;-68
2021/10/15 04:48:55;;;;;;;15.82;7.70;;;4.00;76.70;;;;;;4973999;28;20114;-68
2021/10/15 04:51:21;;;;;;;13.85;8.45;;;4.00;77.50;;;;;;4962676;28;20059;-67
2021/10/15 04:53:47;;;;;;;15.07;8.25;;;4.00;78.10;;;;;;4961035;28;20043;-67
2021/10/15 04:56:12;;;;;;;28.77;8.55;;;4.10;78.60;;;;;;4962395;28;20023;-68
2021/10/15 04:58:38;;;;;;;16.20;9.02;;;4.10;79.00;;;;;;4965722;28;20038;-68
2021/10/15 05:01:03;;;;;;;20.23;8.77;;;4.20;79.50;;;;;;4960316;28;20077;-67
2021/10/15 05:03:29;;;;;;;25.77;9.00;;;4.30;79.90;;;;;;4960621;28;20066;-65
2021/10/15 05:05:55;;;;;;;22.40;9.07;;;4.40;80.20;;;;;;4960891;28;20035;-67
2021/10/15 05:08:22;;;;;;;20.65;9.05;;;4.50;80.40;;;;;;4963455;28;20039;-67
2021/10/15 05:10:47;;;;;;;20.15;9.55;;;4.60;80.50;;;;;;4963294;28;20049;-67
2021/10/15 05:13:14;;;;;;;18.48;9.00;;;4.60;80.50;;;;;;4962764;28;20034;-67
2021/10/15 05:15:44;;;;;;;13.07;8.82;;;4.70;80.60;;;;;;4962235;28;20506;-67
2021/10/15 05:18:14;;;;;;;13.05;8.32;;;4.70;80.90;;;;;;4962500;28;20534;-67
2021/10/15 05:20:41;;;;;;;21.52;8.82;;;4.90;81.50;;;;;;4960965;28;20335;-67
2021/10/15 05:23:07;;;;;;;15.40;8.65;;;4.90;80.60;;;;;;4962457;28;20592;-67
2021/10/15 05:25:34;;;;;;;33.88;15.25;;;5.00;80.70;;;;;;4960670;28;20066;-67
2021/10/15 05:27:59;;;;;;;18.88;11.90;;;5.00;80.50;;;;;;4962972;28;20039;-67
2021/10/15 05:30:26;;;;;;;17.25;10.00;;;5.10;80.60;;;;;;4961518;28;20090;-67
2021/10/15 05:32:52;;;;;;;25.48;10.55;;;5.20;80.60;;;;;;4961369;28;20462;-67
2021/10/15 05:35:18;;;;;;;20.60;10.68;;;5.20;80.50;;;;;;4961054;28;20031;-67
2021/10/15 05:37:44;;;;;;;20.90;11.23;;;5.30;80.40;;;;;;4959102;28;20031;-67
2021/10/15 05:40:10;;;;;;;16.60;9.02;;;5.30;80.40;;;;;;4959669;28;20061;-66
2021/10/15 05:42:36;;;;;;;20.98;13.48;;;5.40;80.40;;;;;;4959963;28;20035;-67
2021/10/15 05:45:02;;;;;;;21.23;12.10;;;5.40;80.60;;;;;;4961686;28;20035;-67
2021/10/15 05:47:28;;;;;;;18.58;10.38;;;5.40;81.40;;;;;;4961081;28;20042;-67
2021/10/15 05:49:56;;;;;;;19.13;10.02;;;5.50;80.70;;;;;;4960539;28;20300;-67
2021/10/15 05:55:34;;;;;;;17.20;12.48;;;5.50;80.40;;;;;;4961772;28;20284;-67
2021/10/15 06:00:32;;;;;;;16.75;9.88;;;5.60;80.50;;;;;;4961412;28;21174;-68
2021/10/15 06:03:00;;;;;;;16.33;9.45;;;5.60;80.50;;;;;;4960505;28;21910;-67
2021/10/15 06:06:28;;;;;;;14.73;10.65;;;5.70;80.60;;;;;;4961115;28;20510;-67
2021/10/15 06:16:31;;;;;;;12.02;9.13;;;5.80;80.30;;;;;;4958832;28;20041;-67
2021/10/15 06:19:04;;;;;;;13.45;8.88;;;5.90;80.20;;;;;;4959912;28;20106;-67
2021/10/15 06:21:30;;;;;;;14.00;8.32;;;5.90;80.30;;;;;;4958562;28;20046;-67
2021/10/15 06:23:56;;;;;;;15.02;8.75;;;5.90;80.20;;;;;;4959328;28;20039;-67
2021/10/15 06:26:22;;;;;;;14.52;10.60;;;5.90;80.20;;;;;;4959322;28;20372;-67
2021/10/15 06:28:47;;;;;;;13.95;9.32;;;6.00;80.30;;;;;;4964472;28;20047;-65
2021/10/15 06:31:13;;;;;;;13.15;8.93;;;5.90;80.40;;;;;;4961107;28;20039;-67
2021/10/15 06:33:38;;;;;;;13.57;9.15;;;6.00;80.50;;;;;;4958270;28;20045;-67
2021/10/15 06:36:04;;;;;;;12.02;9.02;;;6.00;80.60;;;;;;4958680;28;20051;-67
2021/10/15 06:38:30;;;;;;;12.82;9.32;;;6.00;80.60;;;;;;4965572;28;20039;-67
2021/10/15 06:40:56;;;;;;;13.93;9.60;;;6.00;80.70;;;;;;4961397;28;20466;-67
2021/10/15 06:43:24;;;;;;;14.40;9.73;;;6.10;80.80;;;;;;4959484;28;20299;-67
2021/10/15 06:45:50;;;;;;;13.07;9.88;;;6.00;80.80;;;;;;4958348;28;20039;-67
2021/10/15 06:48:15;;;;;;;15.90;11.77;;;6.10;81.00;;;;;;4959421;28;20462;-67
2021/10/15 06:50:41;;;;;;;13.23;9.98;;;6.10;81.20;;;;;;4960427;28;20474;-67
2021/10/15 06:53:08;;;;;;;13.02;8.77;;;6.20;81.30;;;;;;4960265;28;20031;-67
2021/10/15 06:55:34;;;;;;;12.00;9.15;;;6.20;81.30;;;;;;4959081;28;20410;-67
2021/10/15 06:57:59;;;;;;;13.25;10.20;;;6.20;81.30;;;;;;4958855;28;20043;-67
2021/10/15 07:00:25;;;;;;;13.73;9.52;;;6.30;81.40;;;;;;4958323;28;20040;-67
2021/10/15 07:02:50;;;;;;;12.18;9.35;;;6.40;81.50;;;;;;4959023;28;20034;-67
2021/10/15 07:05:17;;;;;;;14.80;9.82;;;6.40;81.40;;;;;;4957916;28;20035;-67
2021/10/15 07:07:42;;;;;;;12.25;9.25;;;6.40;81.40;;;;;;4960653;28;20027;-67
2021/10/15 07:10:08;;;;;;;11.95;9.10;;;6.50;81.40;;;;;;4961841;28;20086;-67
2021/10/15 07:12:43;;;;;;;20.35;10.10;;;6.50;81.40;;;;;;4959578;28;20035;-66
2021/10/15 07:15:10;;;;;;;15.13;9.65;;;6.50;81.80;;;;;;4959980;28;20252;-66
2021/10/15 07:17:36;;;;;;;17.38;9.13;;;6.60;81.40;;;;;;4960145;28;20043;-66
2021/10/15 07:20:04;;;;;;;12.48;9.25;;;6.60;81.40;;;;;;4960706;28;20038;-66
2021/10/15 07:22:29;;;;;;;13.13;9.80;;;6.70;81.70;;;;;;4961069;28;20037;-67
2021/10/15 07:24:55;;;;;;;12.68;9.68;;;6.70;81.60;;;;;;4960446;28;20051;-67
2021/10/15 07:27:21;;;;;;;13.07;10.00;;;6.80;81.80;;;;;;4959324;28;20522;-67
2021/10/15 07:29:47;;;;;;;16.98;9.48;;;6.80;81.70;;;;;;4958839;28;20046;-67
2021/10/15 07:32:12;;;;;;;15.43;10.50;;;6.90;81.90;;;;;;4959970;28;20039;-67
2021/10/15 07:34:38;;;;;;;14.68;10.02;;;7.00;82.10;;;;;;4960823;28;20030;-66
2021/10/15 07:37:04;;;;;;;14.48;9.77;;;7.00;82.20;;;;;;4959387;28;20035;-67
2021/10/15 07:39:30;;;;;;;14.48;10.20;;;7.10;82.20;;;;;;4959658;28;20376;-66
2021/10/15 07:41:56;;;;;;;16.83;11.80;;;7.20;82.30;;;;;;4958521;28;20042;-67
2021/10/15 07:44:21;;;;;;;21.80;15.77;;;7.30;82.40;;;;;;4962352;28;20045;-67
2021/10/15 07:46:47;;;;;;;21.77;15.40;;;7.40;82.50;;;;;;4964401;28;20446;-67
2021/10/15 07:49:13;;;;;;;17.10;12.25;;;7.50;82.50;;;;;;4962170;28;20054;-67
2021/10/15 07:51:38;;;;;;;16.58;11.27;;;7.50;82.40;;;;;;4965553;28;20474;-67
2021/10/15 07:54:04;;;;;;;17.92;11.77;;;7.60;82.40;;;;;;4963098;28;20128;-66
2021/10/15 07:56:32;;;;;;;17.15;11.57;;;7.70;82.40;;;;;;4964023;28;20137;-64
2021/10/15 07:58:59;;;;;;;19.55;11.90;;;7.80;82.40;;;;;;4964683;28;20498;-66
2021/10/15 08:01:25;;;;;;;17.13;12.30;;;7.90;82.40;;;;;;4963726;28;20035;-66
2021/10/15 08:03:51;;;;;;;22.65;15.40;;;8.00;82.40;;;;;;4960497;28;20539;-67
2021/10/15 08:06:17;;;;;;;18.23;12.55;;;8.10;82.30;;;;;;4962323;28;20039;-66
2021/10/15 08:08:43;;;;;;;21.38;12.25;;;8.20;82.10;;;;;;4961867;28;20043;-67
2021/10/15 08:11:11;;;;;;;24.35;16.67;;;8.30;82.10;;;;;;4961376;28;20565;-66
2021/10/15 08:13:36;;;;;;;19.85;13.57;;;8.30;82.00;;;;;;4962067;28;20035;-67
2021/10/15 08:16:02;;;;;;;20.42;13.98;;;8.40;81.80;;;;;;4962682;28;20036;-67
2021/10/15 08:18:28;;;;;;;18.83;13.40;;;8.50;81.60;;;;;;4960384;28;20495;-67
2021/10/15 08:20:57;;;;;;;19.83;14.65;;;8.60;81.50;;;;;;4963505;28;20078;-67
2021/10/15 08:23:28;;;;;;;17.85;12.95;;;8.70;81.30;;;;;;4962251;28;20129;-67
2021/10/15 08:25:55;;;;;;;17.90;12.88;;;8.80;81.00;;;;;;4963251;28;20118;-67
2021/10/15 08:28:21;;;;;;;16.77;12.80;;;8.80;80.60;;;;;;4961984;28;20038;-67
2021/10/15 08:30:47;;;;;;;17.52;12.80;;;8.90;80.50;;;;;;4961204;28;20039;-64
2021/10/15 08:33:13;;;;;;;16.85;12.30;;;8.90;80.40;;;;;;4964115;28;20406;-67
2021/10/15 08:35:38;;;;;;;21.10;12.85;;;9.00;80.40;;;;;;4962940;28;20034;-66
2021/10/15 08:38:04;;;;;;;19.77;12.45;;;9.00;80.30;;;;;;4962597;28;20038;-66
2021/10/15 08:40:30;;;;;;;23.60;14.43;;;9.10;80.30;;;;;;4960632;28;20042;-66
2021/10/15 08:42:56;;;;;;;18.10;12.60;;;9.10;80.30;;;;;;4962797;28;20042;-67
2021/10/15 08:45:27;;;;;;;20.42;13.85;;;9.20;80.40;;;;;;4963083;28;20061;-67
2021/10/15 08:47:53;;;;;;;17.17;12.10;;;9.20;80.30;;;;;;4962146;28;20031;-67
2021/10/15 08:50:20;;;;;;;15.77;11.32;;;9.30;80.10;;;;;;4962013;28;20521;-67
2021/10/15 08:52:45;;;;;;;17.75;12.10;;;9.40;80.10;;;;;;4961455;28;20043;-67
2021/10/15 08:55:11;;;;;;;18.45;12.13;;;9.50;80.00;;;;;;4961481;28;20035;-67
2021/10/15 08:57:37;;;;;;;17.20;12.68;;;9.60;80.00;;;;;;4963394;28;20125;-67
2021/10/15 09:00:27;;;;;;;18.15;13.40;;;9.60;79.80;;;;;;4963514;28;20035;-67
2021/10/15 09:03:15;;;;;;;20.60;12.93;;;9.70;80.00;;;;;;4962137;28;20041;-67
2021/10/15 09:05:54;;;;;;;17.30;12.63;;;9.80;79.60;;;;;;4960155;28;20070;-67
2021/10/15 09:08:20;;;;;;;15.77;11.93;;;9.90;79.30;;;;;;4963458;28;20031;-66
2021/10/15 09:10:45;;;;;;;16.45;11.38;;;10.00;79.20;;;;;;4961439;28;20031;-67
2021/10/15 09:13:20;;;;;;;14.98;11.25;;;10.10;79.00;;;;;;4960841;28;20031;-67
2021/10/15 09:15:58;;;;;;;15.73;11.10;;;10.10;78.90;;;;;;4961434;28;20055;-67
2021/10/15 09:18:29;;;;;;;16.02;11.38;;;10.30;78.80;;;;;;4959753;28;20031;-67
2021/10/15 09:20:56;;;;;;;15.98;11.80;;;10.40;78.70;;;;;;4959946;28;20045;-67
2021/10/15 09:23:49;;;;;;;13.82;11.10;;;10.40;78.30;;;;;;4960662;28;20074;-66
2021/10/15 09:26:16;;;;;;;19.50;11.57;;;10.60;78.20;;;;;;4961858;28;20031;-67
2021/10/15 09:28:44;;;;;;;13.50;10.63;;;10.70;78.00;;;;;;4960242;28;20521;-67
2021/10/15 09:31:10;;;;;;;16.10;10.88;;;10.80;77.70;;;;;;4960449;28;20074;-66
2021/10/15 09:33:35;;;;;;;16.08;11.07;;;10.90;77.60;;;;;;4960182;28;20039;-67
2021/10/15 09:36:10;;;;;;;14.07;10.95;;;10.90;77.50;;;;;;4961627;28;20043;-67
2021/10/15 09:38:35;;;;;;;13.75;10.77;;;11.10;77.30;;;;;;4975431;28;20045;-66
2021/10/15 09:41:01;;;;;;;13.73;10.85;;;11.20;77.10;;;;;;4960142;28;20043;-67
2021/10/15 09:43:34;;;;;;;15.13;9.85;;;11.20;76.70;;;;;;4963573;28;20032;-66
2021/10/15 09:46:00;;;;;;;15.05;10.55;;;11.30;76.40;;;;;;4960194;28;20047;-67
2021/10/15 09:48:35;;;;;;;14.82;10.35;;;11.40;76.30;;;;;;4959856;28;20043;-67
2021/10/15 09:51:20;;;;;;;12.65;10.23;;;11.50;75.30;;;;;;4962497;28;20051;-65
2021/10/15 09:54:12;;;;;;;16.70;10.32;;;11.60;75.20;;;;;;4959947;28;20485;-67
2021/10/15 09:56:43;;;;;;;13.00;9.45;;;11.70;74.80;;;;;;4960901;28;20067;-67
2021/10/15 09:59:09;;;;;;;12.80;9.68;;;11.80;74.90;;;;;;4962363;28;20394;-67
2021/10/15 10:01:36;;;;;;;12.65;9.10;;;11.90;74.70;;;;;;4960697;28;20032;-67
2021/10/15 10:04:04;;;;;;;12.52;9.35;;;12.00;74.60;;;;;;4961736;28;20502;-66
2021/10/15 10:06:30;;;;;;;12.82;9.38;;;12.00;74.20;;;;;;4959335;28;20138;-67
2021/10/15 10:08:56;;;;;;;12.18;9.07;;;12.20;73.90;;;;;;4960359;28;20118;-66
2021/10/15 10:11:22;;;;;;;10.07;8.15;;;12.20;73.20;;;;;;4959209;28;20463;-66
2021/10/15 10:13:48;;;;;;;11.20;8.90;;;12.30;73.20;;;;;;4960302;28;20046;-66
2021/10/15 10:16:15;;;;;;;12.27;9.73;;;12.40;73.10;;;;;;4960966;28;20541;-67
2021/10/15 10:18:44;;;;;;;13.43;10.90;;;12.40;72.80;;;;;;4959758;28;20066;-66
2021/10/15 10:21:23;;;;;;;13.02;10.32;;;12.60;72.70;;;;;;4958994;28;20047;-68
2021/10/15 10:23:55;;;;;;;11.45;8.95;;;12.60;72.20;;;;;;4959959;28;20038;-67
2021/10/15 10:26:22;;;;;;;10.27;8.13;;;12.80;72.50;;;;;;4960212;28;20066;-67
2021/10/15 10:29:01;;;;;;;9.55;7.60;;;12.80;72.50;;;;;;4960356;28;20057;-67
2021/10/15 10:31:26;;;;;;;9.13;7.85;;;13.00;72.00;;;;;;4959130;28;20046;-67
2021/10/15 10:33:54;;;;;;;9.43;7.93;;;13.00;72.30;;;;;;4958996;28;20051;-67
2021/10/15 10:36:20;;;;;;;11.80;8.25;;;13.10;72.00;;;;;;4956077;28;20046;-66
2021/10/15 10:38:46;;;;;;;10.45;7.82;;;13.20;71.40;;;;;;4960008;28;20038;-66
2021/10/15 10:41:14;;;;;;;8.65;7.55;;;13.30;71.30;;;;;;4958502;28;20050;-67
2021/10/15 10:43:43;;;;;;;11.27;7.18;;;13.40;71.00;;;;;;4975177;28;20045;-66
2021/10/15 10:46:08;;;;;;;9.93;7.93;;;13.50;70.30;;;;;;4961653;28;20070;-67
2021/10/15 10:48:49;;;;;;;8.90;6.68;;;13.60;70.20;;;;;;4958851;28;20035;-67
2021/10/15 10:51:22;;;;;;;7.32;6.28;;;13.60;68.20;;;;;;4959448;28;20039;-68
2021/10/15 10:54:06;;;;;;;8.88;6.20;;;13.70;68.20;;;;;;4959176;28;20039;-66
2021/10/15 10:56:41;;;;;;;7.80;6.07;;;13.70;68.60;;;;;;4957537;28;20503;-67
2021/10/15 10:59:22;;;;;;;9.07;8.05;;;13.80;68.80;;;;;;4959464;28;20030;-66
2021/10/15 11:01:51;;;;;;;8.20;6.93;;;13.90;68.90;;;;;;4975048;28;20034;-67
2021/10/15 11:04:40;;;;;;;7.90;7.07;;;14.00;69.50;;;;;;4958984;28;20122;-67
2021/10/15 11:07:07;;;;;;;8.43;6.47;;;14.00;69.10;;;;;;4958364;28;20036;-68
2021/10/15 11:09:45;;;;;;;8.27;7.38;;;14.20;69.50;;;;;;4959487;28;20121;-67
2021/10/15 11:12:13;;;;;;;10.05;7.70;;;14.20;68.10;;;;;;4960499;28;20035;-68
2021/10/15 11:14:59;;;;;;;8.60;7.10;;;14.40;69.30;;;;;;4958654;28;20515;-67
2021/10/15 11:17:32;;;;;;;10.82;6.72;;;14.50;68.20;;;;;;4959107;28;20039;-67
2021/10/15 11:20:18;;;;;;;10.60;6.97;;;14.50;68.50;;;;;;4960750;28;20129;-67
2021/10/15 11:22:48;;;;;;;;;;;14.70;67.80;;;;;;4960566;28;20042;-67
2021/10/15 11:25:14;;;;;;;7.55;6.50;;;14.80;68.50;;;;;;4959547;28;19981;-68
2021/10/15 11:27:40;;;;;;;7.82;6.68;;;14.80;68.60;;;;;;4958548;28;20042;-67
2021/10/15 11:30:10;;;;;;;12.68;8.43;;;14.90;68.30;;;;;;4958681;28;20035;-67
2021/10/15 11:32:42;;;;;;;12.77;8.30;;;15.00;67.80;;;;;;4958498;28;20082;-67
2021/10/15 11:35:09;;;;;;;9.52;6.55;;;15.10;66.90;;;;;;4959469;28;20045;-67
2021/10/15 11:37:55;;;;;;;9.35;6.45;;;15.20;67.10;;;;;;4960578;28;20196;-68
2021/10/15 11:40:22;;;;;;;;;;;15.30;65.90;;;;;;4958250;28;20039;-67
2021/10/15 11:42:48;;;;;;;5.50;5.00;;;15.40;67.30;;;;;;4960065;28;19938;-67
2021/10/15 11:45:29;;;;;;;5.85;5.22;;;15.40;66.80;;;;;;4959242;28;20039;-67
2021/10/15 11:48:11;;;;;;;7.32;5.68;;;15.50;65.30;;;;;;4958888;28;20046;-67
2021/10/15 11:50:37;;;;;;;8.10;6.18;;;15.50;65.90;;;;;;4958828;28;20179;-67
2021/10/15 11:53:04;;;;;;;6.95;6.25;;;15.60;66.10;;;;;;4961344;28;20126;-67
2021/10/15 11:55:31;;;;;;;7.55;6.63;;;15.70;65.70;;;;;;4959027;28;20047;-68
2021/10/15 11:58:20;;;;;;;5.93;5.32;;;15.80;65.10;;;;;;4961246;28;20051;-68
2021/10/15 12:01:15;;;;;;;8.57;6.25;;;15.80;64.10;;;;;;4957621;28;20035;-67
2021/10/15 12:03:55;;;;;;;7.13;5.95;;;15.80;64.40;;;;;;4960412;28;20078;-67
2021/10/15 12:06:30;;;;;;;6.70;6.00;;;15.90;65.20;;;;;;4959127;28;20552;-67
2021/10/15 12:08:57;;;;;;;7.50;6.13;;;15.90;64.80;;;;;;4959137;28;20043;-67
2021/10/15 12:11:26;;;;;;;7.38;6.07;;;16.00;65.30;;;;;;4957144;28;20390;-67
2021/10/15 12:13:53;;;;;;;6.30;5.53;;;16.00;65.00;;;;;;4958507;28;20027;-67
2021/10/15 12:16:31;;;;;;;7.43;5.88;;;16.00;65.70;;;;;;4960956;28;20407;-68
2021/10/15 12:19:08;;;;;;;6.43;5.82;;;16.10;64.30;;;;;;4959056;28;20039;-67
2021/10/15 12:21:35;;;;;;;7.85;5.80;;;16.10;64.50;;;;;;4958177;28;20039;-66
2021/10/15 12:24:01;;;;;;;6.53;5.88;;;16.10;64.80;;;;;;4958778;28;20043;-68
2021/10/15 12:26:27;;;;;;;7.22;5.80;;;16.20;64.50;;;;;;4958138;28;20038;-68
2021/10/15 12:28:53;;;;;;;6.43;5.82;;;16.20;64.30;;;;;;4957833;28;20038;-68
2021/10/15 12:31:25;;;;;;;7.40;5.90;;;16.20;64.20;;;;;;4962485;28;20808;-67
2021/10/15 12:34:13;;;;;;;6.38;5.55;;;16.20;63.60;;;;;;4960592;28;20053;-67
2021/10/15 12:36:41;;;;;;;6.22;5.32;;;16.30;63.30;;;;;;4960500;28;20035;-68
2021/10/15 12:39:23;;;;;;;7.00;5.78;;;16.30;64.10;;;;;;4962782;28;20494;-67
2021/10/15 12:41:51;;;;;;;6.22;5.38;;;16.30;63.10;;;;;;4963698;28;20572;-68
2021/10/15 12:44:29;;;;;;;5.63;4.65;;;16.40;63.70;;;;;;4962883;28;20039;-68
2021/10/15 12:47:01;;;;;;;5.75;5.03;;;16.40;63.30;;;;;;4962614;28;20062;-67
2021/10/15 12:49:29;;;;;;;5.68;5.18;;;16.40;62.90;;;;;;4962239;28;20114;-67
2021/10/15 12:51:54;;;;;;;6.00;5.28;;;16.40;63.20;;;;;;4961330;28;20039;-68
2021/10/15 12:54:39;;;;;;;5.97;4.90;;;16.50;63.00;;;;;;4960799;28;20517;-68
2021/10/15 12:57:09;;;;;;;;;;;16.50;62.20;;;;;;4962544;28;20055;-67
2021/10/15 12:59:35;;;;;;;6.45;4.65;;;16.60;63.50;;;;;;4962196;28;19914;-67
2021/10/15 13:02:08;;;;;;;5.45;4.90;;;16.60;63.10;;;;;;4961874;28;20517;-68
2021/10/15 13:04:34;;;;;;;6.43;4.90;;;16.60;62.00;;;;;;4961547;28;20118;-67
2021/10/15 13:07:01;;;;;;;5.40;4.78;;;16.60;62.20;;;;;;4961660;28;20143;-67